Time;durP1;ratioP1;P1;durP2;ratioP2;P2;SDS_P1;SDS_P2;PMS_P1;PMS_P2;Temp;Humidity;BMP_temperature;BMP_pressure;BME280_temperature;BME280_humidity;BME280_pressure;Samples;Min_cycle;Max_cycle;Signal;HPM_P1;HPM_P2
2022/10/17 00:02:00;;;;;;;8.23;5.35;;;;;;;4.70;100.00;94373.19;5051741;28;20115;-75
2022/10/17 00:04:26;;;;;;;9.10;5.63;;;;;;;4.61;100.00;94370.59;5051489;28;20626;-75
2022/10/17 00:06:53;;;;;;;7.97;5.22;;;;;;;4.57;100.00;94371.81;5051353;28;20049;-75
2022/10/17 00:09:20;;;;;;;7.75;5.05;;;;;;;4.51;100.00;94357.94;5051410;28;20104;-75
2022/10/17 00:11:48;;;;;;;7.80;5.47;;;;;;;4.55;100.00;94382.13;5051546;28;20115;-75
2022/10/17 00:14:15;;;;;;;9.98;6.07;;;;;;;4.53;100.00;94373.03;5051311;28;20103;-76
2022/10/17 00:16:41;;;;;;;9.15;5.40;;;;;;;4.47;100.00;94368.50;5051372;28;20037;-74
2022/10/17 00:19:08;;;;;;;8.65;5.53;;;;;;;4.44;100.00;94376.44;5054498;28;20044;-74
2022/10/17 00:21:35;;;;;;;7.57;5.22;;;;;;;4.45;100.00;94380.59;5071188;28;20040;-74
2022/10/17 00:24:02;;;;;;;9.00;4.88;;;;;;;4.37;100.00;94379.56;5071376;28;20049;-74
2022/10/17 00:26:29;;;;;;;6.60;4.93;;;;;;;4.28;100.00;94368.50;5071498;28;20458;-75
2022/10/17 00:28:57;;;;;;;8.50;5.55;;;;;;;4.36;100.00;94379.69;5071003;28;20046;-75
2022/10/17 00:31:25;;;;;;;10.45;6.00;;;;;;;4.28;100.00;94388.03;5071137;28;20098;-76
2022/10/17 00:33:52;;;;;;;9.73;7.05;;;;;;;4.25;100.00;94378.94;5071351;28;20036;-75
2022/10/17 00:36:21;;;;;;;9.13;5.95;;;;;;;4.29;100.00;94376.91;5071194;28;20049;-75
2022/10/17 00:38:50;;;;;;;9.30;6.10;;;;;;;4.23;100.00;94374.94;5071160;28;20098;-75
2022/10/17 00:41:19;;;;;;;9.65;7.07;;;;;;;4.25;100.00;94383.22;5071058;28;20052;-75
2022/10/17 00:43:59;;;;;;;14.30;7.78;;;;;;;4.25;100.00;94385.75;5071144;28;20040;-75
2022/10/17 00:46:28;;;;;;;12.55;8.05;;;;;;;4.20;100.00;94386.19;5070976;28;20387;-75
2022/10/17 00:48:58;;;;;;;11.55;8.27;;;;;;;4.22;100.00;94384.28;5070733;28;20458;-75
2022/10/17 00:51:33;;;;;;;10.90;7.50;;;;;;;4.21;100.00;94389.53;5070657;28;21560;-76
2022/10/17 00:54:02;;;;;;;10.50;7.00;;;;;;;4.24;100.00;94389.25;5070568;28;20061;-75
2022/10/17 00:56:30;;;;;;;11.75;7.90;;;;;;;4.26;100.00;94389.94;5070719;28;20105;-73
2022/10/17 00:58:58;;;;;;;13.18;8.50;;;;;;;4.20;100.00;94382.84;5071053;28;20044;-73
2022/10/17 01:01:25;;;;;;;10.88;7.72;;;;;;;4.19;100.00;94383.78;5070712;28;20048;-74
2022/10/17 01:03:52;;;;;;;13.00;9.60;;;;;;;4.13;100.00;94387.69;5070623;28;20041;-73
2022/10/17 01:06:19;;;;;;;12.77;8.48;;;;;;;4.05;100.00;94378.22;5070101;28;20048;-73
2022/10/17 01:08:46;;;;;;;12.98;8.70;;;;;;;4.00;100.00;94383.75;5070389;28;20086;-74
2022/10/17 01:11:23;;;;;;;14.13;9.38;;;;;;;4.01;100.00;94379.44;5070636;28;20052;-74
2022/10/17 01:13:54;;;;;;;12.38;7.55;;;;;;;4.03;100.00;94381.84;5070304;28;20107;-74
2022/10/17 01:16:32;;;;;;;11.52;7.55;;;;;;;3.94;100.00;94376.66;5070342;28;20094;-74
2022/10/17 01:19:09;;;;;;;14.07;8.20;;;;;;;3.94;100.00;94380.94;5070069;28;20041;-74
2022/10/17 01:21:50;;;;;;;10.38;6.78;;;;;;;3.82;100.00;94376.03;5070435;28;20070;-73
2022/10/17 01:24:49;;;;;;;10.55;7.13;;;;;;;3.94;100.00;94388.56;5070287;28;20439;-73
2022/10/17 01:27:45;;;;;;;8.88;6.60;;;;;;;3.84;100.00;94381.78;5070024;28;20119;-73
2022/10/17 01:30:52;;;;;;;9.05;5.97;;;;;;;3.77;100.00;94378.19;5070234;28;20419;-74
2022/10/17 01:33:30;;;;;;;9.18;6.45;;;;;;;3.70;100.00;94377.94;5070332;28;20495;-74
2022/10/17 01:36:01;;;;;;;10.02;5.85;;;;;;;3.70;100.00;94380.47;5070059;28;20048;-74
2022/10/17 01:38:33;;;;;;;8.23;6.15;;;;;;;3.68;100.00;94379.00;5070129;28;20044;-74
2022/10/17 01:41:05;;;;;;;7.95;5.80;;;;;;;3.72;100.00;94385.44;5052447;28;20072;-74
2022/10/17 01:43:37;;;;;;;8.40;5.47;;;;;;;3.50;100.00;94350.97;5049826;28;20071;-74
2022/10/17 01:46:11;;;;;;;8.55;6.05;;;;;;;3.57;100.00;94383.31;5067771;28;20098;-74
2022/10/17 01:48:43;;;;;;;10.02;5.82;;;;;;;3.58;100.00;94389.19;5069800;28;20040;-74
2022/10/17 01:51:15;;;;;;;9.23;6.05;;;;;;;3.58;100.00;94390.00;5069725;28;20145;-74
2022/10/17 01:53:49;;;;;;;8.50;5.40;;;;;;;3.55;100.00;94392.00;5049356;28;20493;-74
2022/10/17 01:56:19;;;;;;;10.15;6.72;;;;;;;3.54;100.00;94395.50;5049500;28;20083;-74
2022/10/17 01:58:49;;;;;;;10.43;6.85;;;;;;;3.53;100.00;94389.63;5049663;28;20087;-74
2022/10/17 02:01:18;;;;;;;9.23;6.15;;;;;;;3.58;100.00;94390.00;5049362;28;20041;-74
2022/10/17 02:03:50;;;;;;;8.57;6.63;;;;;;;3.58;100.00;94397.63;5049385;28;20040;-73
2022/10/17 02:06:17;;;;;;;8.43;5.95;;;;;;;3.56;100.00;94391.88;5049564;28;20452;-73
2022/10/17 02:08:46;;;;;;;8.10;5.63;;;;;;;3.61;100.00;94391.44;5049237;28;20091;-73
2022/10/17 02:11:16;;;;;;;9.70;6.32;;;;;;;3.68;100.00;94391.72;5049159;28;20171;-73
2022/10/17 02:14:13;;;;;;;8.23;5.60;;;;;;;3.68;100.00;94400.16;5067245;28;20048;-73
2022/10/17 02:16:48;;;;;;;7.10;5.15;;;;;;;3.56;100.00;94398.72;5067809;28;20571;-73
2022/10/17 02:19:38;;;;;;;7.20;4.97;;;;;;;3.47;100.00;94397.75;5068367;28;20098;-73
2022/10/17 02:22:17;;;;;;;9.75;6.35;;;;;;;3.39;100.00;94390.84;5069335;28;20981;-73
2022/10/17 02:24:50;;;;;;;9.50;6.07;;;;;;;3.37;100.00;94387.63;5069169;28;20040;-73
2022/10/17 02:27:25;;;;;;;9.15;6.47;;;;;;;3.36;100.00;94397.91;5068953;28;20492;-73
2022/10/17 02:29:56;;;;;;;;;;;;;;;3.39;100.00;94405.28;5069279;28;20442;-73
2022/10/17 02:32:29;;;;;;;11.63;6.78;;;;;;;3.31;100.00;94398.31;5068991;28;19966;-73
2022/10/17 02:35:00;;;;;;;11.02;6.38;;;;;;;3.37;100.00;94404.63;5068751;28;20051;-73
2022/10/17 02:37:30;;;;;;;7.78;5.68;;;;;;;3.29;100.00;94407.81;5069088;28;20127;-75
2022/10/17 02:39:59;;;;;;;8.60;6.40;;;;;;;3.26;100.00;94418.25;5069032;28;20102;-74
2022/10/17 02:42:27;;;;;;;10.43;6.68;;;;;;;3.26;100.00;94418.25;5069058;28;20048;-74
2022/10/17 02:44:58;;;;;;;10.35;6.35;;;;;;;3.25;100.00;94417.47;5068708;28;20504;-73
2022/10/17 02:47:28;;;;;;;12.65;7.95;;;;;;;3.19;100.00;94418.78;5068840;28;20040;-74
2022/10/17 02:49:58;;;;;;;9.13;6.85;;;;;;;3.16;100.00;94419.03;5068724;28;20041;-74
2022/10/17 02:52:31;;;;;;;8.15;6.10;;;;;;;3.25;100.00;94427.63;5068910;28;20127;-75
2022/10/17 02:55:03;;;;;;;8.05;5.63;;;;;;;3.21;100.00;94428.81;5069038;28;20036;-74
2022/10/17 02:57:34;;;;;;;7.38;5.10;;;;;;;3.26;100.00;94431.75;5068956;28;20048;-73
2022/10/17 03:00:03;;;;;;;9.30;8.30;;;;;;;3.14;100.00;94420.91;5068683;28;20052;-73
2022/10/17 03:02:39;;;;;;;9.27;5.85;;;;;;;3.15;100.00;94419.19;5068868;28;20090;-73
2022/10/17 03:05:08;;;;;;;7.60;5.22;;;;;;;3.15;100.00;94427.59;5068781;28;20397;-73
2022/10/17 03:07:35;;;;;;;6.93;5.05;;;;;;;3.09;100.00;94429.88;5068659;28;20094;-73
2022/10/17 03:10:01;;;;;;;8.90;5.65;;;;;;;3.01;100.00;94435.63;5068295;28;20495;-73
2022/10/17 03:12:28;;;;;;;7.13;5.18;;;;;;;2.99;100.00;94427.31;5068416;28;20558;-73
2022/10/17 03:14:55;;;;;;;7.78;4.93;;;;;;;2.98;100.00;94433.34;5068284;28;20041;-73
2022/10/17 03:17:21;;;;;;;10.00;5.35;;;;;;;3.03;100.00;94432.00;5068841;28;20044;-73
2022/10/17 03:19:48;;;;;;;8.02;4.75;;;;;;;3.04;100.00;94441.22;5068776;28;20102;-73
2022/10/17 03:22:16;;;;;;;7.13;5.03;;;;;;;2.94;100.00;94427.72;5068627;28;20040;-73
2022/10/17 03:24:43;;;;;;;8.43;6.30;;;;;;;2.91;100.00;94428.78;5068103;28;20090;-73
2022/10/17 03:27:10;;;;;;;9.07;7.50;;;;;;;2.96;100.00;94436.00;5068463;28;20045;-73
2022/10/17 03:29:37;;;;;;;15.98;14.07;;;;;;;2.95;100.00;94434.41;5070126;28;20055;-73
2022/10/17 03:32:04;;;;;;;12.15;9.70;;;;;;;2.83;100.00;94422.78;5072006;28;20508;-72
2022/10/17 03:34:30;;;;;;;11.50;10.25;;;;;;;2.90;100.00;94442.41;5072506;28;20041;-73
2022/10/17 03:36:57;;;;;;;11.82;10.30;;;;;;;2.89;100.00;94437.47;5072090;28;20037;-73
2022/10/17 03:39:25;;;;;;;10.18;8.95;;;;;;;2.91;100.00;94433.88;5072514;28;20101;-73
2022/10/17 03:41:52;;;;;;;9.98;8.90;;;;;;;2.94;100.00;94436.16;5072347;28;20044;-73
2022/10/17 03:44:19;;;;;;;10.20;7.40;;;;;;;2.91;100.00;94441.47;5071971;28;20511;-72
2022/10/17 03:46:45;;;;;;;8.55;6.20;;;;;;;2.92;100.00;94444.84;5071869;28;20097;-73
2022/10/17 03:49:12;;;;;;;6.75;5.22;;;;;;;2.97;100.00;94442.69;5072277;28;20052;-73
2022/10/17 03:51:39;;;;;;;7.07;4.90;;;;;;;2.97;100.00;94440.16;5072095;28;20907;-73
2022/10/17 03:54:06;;;;;;;7.03;4.82;;;;;;;2.94;100.00;94443.78;5071854;28;20102;-73
2022/10/17 03:56:34;;;;;;;6.43;4.85;;;;;;;2.92;100.00;94443.06;5072014;28;20094;-73
2022/10/17 03:59:01;;;;;;;5.70;4.13;;;;;;;2.91;100.00;94444.00;5071977;28;20049;-73
2022/10/17 04:01:27;;;;;;;7.10;4.28;;;;;;;2.84;100.00;94445.47;5071854;28;20053;-73
2022/10/17 04:03:56;;;;;;;8.70;4.85;;;;;;;2.79;100.00;94445.84;5071749;28;20052;-73
2022/10/17 04:06:23;;;;;;;9.38;5.18;;;;;;;2.72;100.00;94446.53;5071804;28;20503;-73
2022/10/17 04:08:50;;;;;;;10.15;5.82;;;;;;;2.57;100.00;94449.44;5071575;28;20048;-73
2022/10/17 04:11:19;;;;;;;8.65;6.55;;;;;;;2.48;100.00;94455.25;5071752;28;20393;-73
2022/10/17 04:13:47;;;;;;;8.38;6.25;;;;;;;2.53;100.00;94453.97;5071806;28;20537;-73
2022/10/17 04:16:15;;;;;;;9.32;7.13;;;;;;;2.54;100.00;94457.28;5071413;28;20056;-73
2022/10/17 04:18:42;;;;;;;17.95;13.05;;;;;;;2.52;100.00;94457.44;5071230;28;20577;-73
2022/10/17 04:21:09;;;;;;;23.48;14.68;;;;;;;2.51;100.00;94457.56;5071454;28;20048;-73
2022/10/17 04:23:36;;;;;;;17.45;12.52;;;;;;;2.50;100.00;94446.59;5071347;28;20086;-74
2022/10/17 04:26:04;;;;;;;18.20;12.98;;;;;;;2.56;100.00;94457.16;5070934;28;20090;-73
2022/10/17 04:28:31;;;;;;;17.08;11.90;;;;;;;2.57;100.00;94466.38;5071487;28;20037;-73
2022/10/17 04:31:01;;;;;;;19.38;13.23;;;;;;;2.56;100.00;94472.38;5071151;28;20049;-73
2022/10/17 04:33:28;;;;;;;18.35;12.57;;;;;;;2.56;100.00;94470.66;5071438;28;20040;-73
2022/10/17 04:35:56;;;;;;;12.48;8.80;;;;;;;2.62;100.00;94479.47;5071421;28;20048;-73
2022/10/17 04:38:23;;;;;;;13.00;8.75;;;;;;;2.60;100.00;94478.81;5071200;28;20041;-73
2022/10/17 04:40:50;;;;;;;10.98;8.18;;;;;;;2.59;100.00;94477.22;5070261;28;20097;-74
2022/10/17 04:43:16;;;;;;;10.27;7.20;;;;;;;2.51;100.00;94476.09;5071270;28;20037;-74
2022/10/17 04:45:43;;;;;;;10.57;6.93;;;;;;;2.51;100.00;94465.16;5070968;28;20459;-74
2022/10/17 04:48:11;;;;;;;9.38;6.78;;;;;;;2.47;100.00;94459.53;5070792;28;20048;-74
2022/10/17 04:50:38;;;;;;;9.73;7.68;;;;;;;2.47;100.00;94468.88;5070692;28;20553;-74
2022/10/17 04:53:04;;;;;;;10.80;7.03;;;;;;;2.51;100.00;94468.47;5071070;28;20102;-74
2022/10/17 04:55:31;;;;;;;11.32;7.90;;;;;;;2.54;100.00;94472.50;5070944;28;20130;-73
2022/10/17 04:57:58;;;;;;;21.27;16.85;;;;;;;2.45;100.00;94475.81;5070850;28;20048;-74
2022/10/17 05:00:25;;;;;;;13.30;9.30;;;;;;;2.44;100.00;94467.41;5070777;28;20139;-74
2022/10/17 05:02:51;;;;;;;71.40;37.60;;;;;;;2.48;100.00;94476.38;5070624;28;20044;-73
2022/10/17 05:05:20;;;;;;;19.52;13.43;;;;;;;2.49;100.00;94477.16;5070732;28;20048;-73
2022/10/17 05:07:46;;;;;;;39.22;22.80;;;;;;;2.50;100.00;94483.84;5070881;28;20092;-73
2022/10/17 05:10:13;;;;;;;24.98;16.48;;;;;;;2.53;100.00;94481.03;5070428;28;20052;-73
2022/10/17 05:12:40;;;;;;;70.85;39.55;;;;;;;2.52;100.00;94485.34;5070390;28;20500;-73
2022/10/17 05:15:08;;;;;;;93.30;46.72;;;;;;;2.57;100.00;94468.91;5070620;28;20106;-74
2022/10/17 05:17:35;;;;;;;86.30;40.53;;;;;;;2.53;100.00;94489.47;5070657;28;20098;-73
2022/10/17 05:20:01;;;;;;;83.45;44.15;;;;;;;2.62;100.00;94487.91;5070200;28;20048;-73
2022/10/17 05:22:29;;;;;;;44.30;22.83;;;;;;;2.37;100.00;94453.63;5070502;28;20381;-74
2022/10/17 05:24:56;;;;;;;43.80;26.20;;;;;;;2.69;100.00;94495.81;5070291;28;20075;-73
2022/10/17 05:27:23;;;;;;;34.85;19.65;;;;;;;2.76;100.00;94493.53;5070025;28;20481;-74
2022/10/17 05:29:50;;;;;;;47.88;26.80;;;;;;;2.83;100.00;94493.81;5070310;28;20044;-74
2022/10/17 05:32:17;;;;;;;34.15;18.90;;;;;;;2.84;100.00;94498.78;5070205;28;20044;-73
2022/10/17 05:34:43;;;;;;;24.75;13.43;;;;;;;2.92;100.00;94509.06;5070116;28;20036;-74
2022/10/17 05:37:10;;;;;;;20.35;12.30;;;;;;;3.00;100.00;94508.41;5070221;28;20048;-74
2022/10/17 05:39:38;;;;;;;15.95;10.52;;;;;;;3.02;100.00;94509.09;5069775;28;20037;-73
2022/10/17 05:42:05;;;;;;;15.23;9.65;;;;;;;3.00;100.00;94500.03;5067237;28;20443;-74
2022/10/17 05:44:32;;;;;;;15.70;10.30;;;;;;;3.13;100.00;94514.97;5049012;28;20041;-74
2022/10/17 05:46:58;;;;;;;14.93;10.20;;;;;;;3.21;100.00;94515.16;5048797;28;20138;-74
2022/10/17 05:49:26;;;;;;;15.55;10.93;;;;;;;3.32;100.00;94511.66;5050051;28;20551;-74
2022/10/17 05:51:52;;;;;;;14.02;10.38;;;;;;;3.39;100.00;94514.50;5049402;28;20065;-74
2022/10/17 05:54:19;;;;;;;30.33;22.17;;;;;;;3.42;100.00;94517.56;5048913;28;20053;-74
2022/10/17 05:56:51;;;;;;;16.15;11.52;;;;;;;3.53;100.00;94526.00;5049795;28;20042;-75
2022/10/17 05:59:18;;;;;;;16.92;12.75;;;;;;;3.61;100.00;94519.31;5049504;28;20045;-74
2022/10/17 06:01:45;;;;;;;13.27;9.80;;;;;;;3.72;100.00;94530.28;5049248;28;20056;-74
2022/10/17 06:04:12;;;;;;;16.05;12.90;;;;;;;3.72;100.00;94512.50;5049627;28;20098;-74
2022/10/17 06:06:40;;;;;;;17.02;11.52;;;;;;;3.86;100.00;94518.91;5049574;28;20106;-74
2022/10/17 06:09:08;;;;;;;26.75;21.25;;;;;;;4.10;100.00;94531.19;5049398;28;20110;-74
2022/10/17 06:11:35;;;;;;;20.02;14.75;;;;;;;4.26;100.00;94528.06;5049169;28;20110;-74
2022/10/17 06:14:03;;;;;;;14.48;11.35;;;;;;;4.43;100.00;94533.38;5049363;28;20394;-74
2022/10/17 06:16:30;;;;;;;13.88;10.88;;;;;;;4.53;100.00;94529.06;5049434;28;20044;-74
2022/10/17 06:18:57;;;;;;;18.15;12.27;;;;;;;4.41;100.00;94490.25;5050537;28;20095;-74
2022/10/17 06:21:26;;;;;;;22.33;14.88;;;;;;;4.79;100.00;94530.97;5069400;28;20041;-75
2022/10/17 06:23:53;;;;;;;27.30;16.52;;;;;;;4.92;100.00;94540.03;5069228;28;20040;-74
2022/10/17 06:26:20;;;;;;;40.80;23.80;;;;;;;4.99;100.00;94530.09;5049185;28;20416;-75
2022/10/17 06:28:47;;;;;;;45.13;25.35;;;;;;;5.14;100.00;94540.59;5048986;28;20045;-74
2022/10/17 06:31:17;;;;;;;22.35;14.68;;;;;;;5.20;100.00;94540.03;5049088;28;20060;-75
2022/10/17 06:33:44;;;;;;;30.63;17.73;;;;;;;5.32;100.00;94545.72;5066808;28;20060;-75
2022/10/17 06:36:13;;;;;;;37.17;22.90;;;;;;;5.48;100.00;94545.06;5069159;28;20045;-74
2022/10/17 06:38:40;;;;;;;28.20;18.30;;;;;;;5.51;100.00;94532.03;5068974;28;20051;-75
2022/10/17 06:41:09;;;;;;;27.60;17.33;;;;;;;5.74;100.00;94541.81;5068770;28;20561;-74
2022/10/17 06:43:36;;;;;;;24.20;16.65;;;;;;;5.66;100.00;94511.94;5068939;28;20102;-75
2022/10/17 06:46:03;;;;;;;25.58;16.52;;;;;;;6.03;100.00;94545.88;5069300;28;20075;-74
2022/10/17 06:48:32;;;;;;;27.98;18.58;;;;;;;6.17;100.00;94544.56;5069328;28;20102;-74
2022/10/17 06:51:00;;;;;;;26.13;16.83;;;;;;;6.29;100.00;94529.78;5069267;28;20044;-74
2022/10/17 06:53:28;;;;;;;40.33;22.27;;;;;;;6.44;100.00;94531.78;5069244;28;20109;-75
2022/10/17 06:56:00;;;;;;;47.95;26.50;;;;;;;6.59;100.00;94540.50;5068651;28;20048;-75
2022/10/17 06:58:27;;;;;;;43.95;25.00;;;;;;;6.74;100.00;94547.56;5068849;28;20040;-74
2022/10/17 07:00:58;;;;;;;41.58;23.95;;;;;;;6.79;100.00;94535.97;5051141;28;20061;-74
2022/10/17 07:03:25;;;;;;;38.97;22.50;;;;;;;6.97;100.00;94545.28;5056915;28;20045;-74
2022/10/17 07:05:54;;;;;;;36.00;22.13;;;;;;;6.80;100.00;94546.97;5065299;28;20492;-75
2022/10/17 07:08:21;;;;;;;37.42;19.70;;;;;;;6.78;100.00;94547.13;5068471;28;20045;-75
2022/10/17 07:10:48;;;;;;;30.60;18.58;;;;;;;6.91;100.00;94548.47;5068829;28;20447;-74
2022/10/17 07:13:15;;;;;;;29.38;17.73;;;;;;;6.98;100.00;94538.44;5068523;28;20056;-74
2022/10/17 07:15:42;;;;;;;26.95;15.45;;;;;;;7.18;100.00;94544.88;5068074;28;20090;-74
2022/10/17 07:18:09;;;;;;;26.52;15.98;;;;;;;7.43;100.00;94554.38;5068311;28;20052;-74
2022/10/17 07:20:36;;;;;;;26.10;16.67;;;;;;;7.61;100.00;94533.78;5067841;28;20856;-74
2022/10/17 07:23:04;;;;;;;24.95;14.70;;;;;;;7.85;100.00;94550.13;5064537;28;20462;-75
2022/10/17 07:25:31;;;;;;;22.10;14.57;;;;;;;7.99;100.00;94561.47;5066773;28;20045;-75
2022/10/17 07:27:58;;;;;;;21.13;13.10;;;;;;;8.19;100.00;94558.59;5068280;28;20049;-74
2022/10/17 07:30:25;;;;;;;17.63;11.85;;;;;;;8.23;100.00;94557.28;5068438;28;20106;-75
2022/10/17 07:32:53;;;;;;;21.67;12.27;;;;;;;8.45;100.00;94565.28;5054718;28;20052;-75
2022/10/17 07:35:21;;;;;;;15.55;9.77;;;;;;;8.55;100.00;94559.06;5068693;28;20139;-74
2022/10/17 07:37:47;;;;;;;17.48;10.32;;;;;;;8.67;100.00;94556.16;5066049;28;20135;-75
2022/10/17 07:40:16;;;;;;;14.85;9.88;;;;;;;8.96;100.00;94565.03;5068376;28;20056;-75
2022/10/17 07:42:42;;;;;;;18.33;10.60;;;;;;;9.21;99.54;94568.28;5068373;28;20040;-75
2022/10/17 07:45:10;;;;;;;22.15;10.57;;;;;;;9.49;100.00;94567.03;5068805;28;20049;-75
2022/10/17 07:47:36;;;;;;;17.38;9.52;;;;;;;9.74;95.48;94569.47;5064612;28;20036;-75
2022/10/17 07:50:04;;;;;;;17.67;8.98;;;;;;;9.96;93.92;94564.50;5054536;28;20094;-74
2022/10/17 07:52:31;;;;;;;12.80;8.60;;;;;;;10.12;96.85;94551.53;5059769;28;20405;-74
2022/10/17 07:54:58;;;;;;;16.08;9.82;;;;;;;10.28;92.07;94571.13;5068453;28;20041;-75
2022/10/17 07:57:26;;;;;;;17.23;8.88;;;;;;;10.46;92.59;94571.84;5068620;28;20053;-75
2022/10/17 07:59:53;;;;;;;25.65;11.93;;;;;;;10.60;89.01;94567.69;5068033;28;20059;-75
2022/10/17 08:02:23;;;;;;;15.43;9.05;;;;;;;10.67;89.11;94551.41;5062841;28;20430;-75
2022/10/17 08:04:50;;;;;;;15.50;7.80;;;;;;;10.77;87.24;94560.59;5063223;28;20087;-76
2022/10/17 08:07:18;;;;;;;14.70;8.77;;;;;;;10.69;84.51;94562.28;5068553;28;20106;-76
2022/10/17 08:09:45;;;;;;;15.77;7.95;;;;;;;10.90;82.60;94570.25;5068235;28;20569;-75
2022/10/17 08:12:14;;;;;;;15.93;8.52;;;;;;;11.17;86.52;94563.69;5068003;28;20075;-75
2022/10/17 08:14:43;;;;;;;134.10;79.30;;;;;;;11.42;86.86;94565.94;5068002;28;20137;-76
2022/10/17 08:17:10;;;;;;;28.05;15.88;;;;;;;11.68;84.01;94569.00;5070650;28;20094;-75
2022/10/17 08:19:38;;;;;;;21.40;11.20;;;;;;;11.99;85.90;94570.50;5072018;28;20041;-75
2022/10/17 08:22:05;;;;;;;12.85;8.15;;;;;;;12.18;78.70;94566.53;5071957;28;20044;-75
2022/10/17 08:24:32;;;;;;;14.30;8.70;;;;;;;12.08;76.24;94566.81;5071762;28;20455;-75
2022/10/17 08:26:59;;;;;;;16.05;8.75;;;;;;;12.00;76.41;94575.44;5072219;28;20094;-75
2022/10/17 08:29:26;;;;;;;14.85;8.70;;;;;;;12.13;77.18;94566.28;5071489;28;20075;-76
2022/10/17 08:31:54;;;;;;;24.63;13.48;;;;;;;12.38;80.52;94560.72;5071405;28;20397;-75
2022/10/17 08:34:21;;;;;;;24.05;14.20;;;;;;;12.74;83.69;94556.41;5071396;28;20052;-75
2022/10/17 08:36:48;;;;;;;17.60;9.98;;;;;;;12.94;78.96;94570.19;5071768;28;20048;-76
2022/10/17 08:39:15;;;;;;;17.02;9.60;;;;;;;13.23;79.46;94565.78;5071585;28;20125;-76
2022/10/17 08:41:55;;;;;;;14.85;9.57;;;;;;;13.54;77.95;94558.56;5071516;28;20040;-75
2022/10/17 08:44:36;;;;;;;16.80;8.70;;;;;;;13.84;75.71;94558.22;5071227;28;20052;-75
2022/10/17 08:47:10;;;;;;;18.85;11.25;;;;;;;14.07;73.79;94551.09;5071085;28;20509;-75
2022/10/17 08:49:45;;;;;;;14.73;7.30;;;;;;;14.36;71.71;94557.69;5071092;28;20094;-75
2022/10/17 08:52:19;;;;;;;14.40;7.30;;;;;;;14.49;66.42;94559.44;5071630;28;20055;-75
2022/10/17 08:54:47;;;;;;;15.18;6.90;;;;;;;14.71;65.50;94564.38;5071303;28;20052;-75
2022/10/17 08:57:16;;;;;;;12.98;6.78;;;;;;;14.84;67.13;94573.94;5071149;28;20105;-76
2022/10/17 08:59:44;;;;;;;14.13;6.85;;;;;;;15.04;66.53;94566.13;5070708;28;20059;-76
2022/10/17 09:02:33;;;;;;;15.68;8.73;;;;;;;15.26;68.02;94557.28;5071334;28;20056;-75
2022/10/17 09:05:21;;;;;;;8.98;5.90;;;;;;;15.49;67.10;94561.97;5065917;28;20048;-75
2022/10/17 09:07:55;;;;;;;36.30;19.90;;;;;;;15.67;63.67;94563.09;5069577;28;20141;-75
2022/10/17 09:10:33;;;;;;;19.23;9.98;;;;;;;15.83;63.39;94562.59;5070737;28;20040;-75
2022/10/17 09:13:18;;;;;;;16.35;9.30;;;;;;;16.00;60.62;94568.09;5071019;28;20161;-76
2022/10/17 09:16:03;;;;;;;41.88;27.65;;;;;;;16.16;61.54;94568.59;5071388;28;20055;-75
2022/10/17 09:18:35;;;;;;;12.75;8.50;;;;;;;16.39;62.85;94564.66;5070961;28;20455;-77
2022/10/17 09:21:11;;;;;;;8.98;5.03;;;;;;;16.55;62.19;94551.13;5070725;28;20117;-76
2022/10/17 09:23:45;;;;;;;9.45;6.10;;;;;;;16.72;60.00;94563.56;5057987;28;20102;-76
2022/10/17 09:26:12;;;;;;;8.30;4.43;;;;;;;16.62;57.17;94558.84;5064505;28;20050;-76
2022/10/17 09:28:42;;;;;;;9.10;5.13;;;;;;;16.84;59.83;94553.25;5064204;28;20118;-76
2022/10/17 09:31:17;;;;;;;8.45;4.40;;;;;;;16.82;54.73;94550.09;5067631;28;20086;-77
2022/10/17 09:33:48;;;;;;;7.97;3.95;;;;;;;17.02;54.55;94560.25;5069180;28;20550;-76
2022/10/17 09:36:21;;;;;;;5.93;3.40;;;;;;;16.13;50.77;94561.25;5067094;28;20045;-78
2022/10/17 09:38:54;;;;;;;4.15;2.53;;;;;;;15.77;48.34;94545.28;5066437;28;20622;-76
2022/10/17 09:41:34;;;;;;;5.32;3.53;;;;;;;15.46;48.66;94541.69;5065827;28;20071;-77
2022/10/17 09:44:21;;;;;;;4.22;2.40;;;;;;;15.20;47.60;94539.03;5070074;28;20569;-77
2022/10/17 09:47:16;;;;;;;6.03;2.92;;;;;;;14.91;48.94;94524.78;5070699;28;20044;-76
2022/10/17 09:49:47;;;;;;;5.20;2.97;;;;;;;15.13;49.66;94550.41;5070164;28;20484;-77
2022/10/17 09:52:16;;;;;;;7.55;4.50;;;;;;;15.24;49.35;94542.00;5067535;28;20056;-77
2022/10/17 09:54:46;;;;;;;6.93;3.47;;;;;;;15.46;48.49;94552.84;5069430;28;20048;-76
2022/10/17 09:57:15;;;;;;;5.47;3.65;;;;;;;15.44;49.16;94551.44;5070109;28;20146;-76
2022/10/17 09:59:46;;;;;;;7.63;3.53;;;;;;;15.41;49.09;94537.13;5069061;28;20045;-76
2022/10/17 10:02:21;;;;;;;5.22;3.30;;;;;;;15.45;50.38;94540.09;5069102;28;20478;-76
2022/10/17 10:05:05;;;;;;;7.13;4.05;;;;;;;15.59;48.43;94531.25;5056243;28;20045;-76
2022/10/17 10:07:34;;;;;;;6.82;4.20;;;;;;;15.55;48.31;94535.25;5054964;28;20290;-76
2022/10/17 10:10:02;;;;;;;7.10;4.07;;;;;;;15.18;48.96;94532.47;5068160;28;20075;-77
2022/10/17 10:12:35;;;;;;;6.13;4.05;;;;;;;15.27;50.37;94533.78;5068398;28;20045;-76
2022/10/17 10:15:02;;;;;;;8.48;5.00;;;;;;;15.44;49.28;94536.72;5068806;28;20967;-76
2022/10/17 10:17:38;;;;;;;9.23;5.32;;;;;;;15.43;50.39;94526.56;5069371;28;20075;-77
2022/10/17 10:20:32;;;;;;;6.65;4.53;;;;;;;15.38;49.38;94523.78;5069176;28;20560;-77
2022/10/17 10:23:07;;;;;;;9.23;5.45;;;;;;;15.54;51.33;94518.13;5056029;28;20044;-76
2022/10/17 10:25:35;;;;;;;9.38;5.75;;;;;;;15.78;50.18;94518.38;5069604;28;20094;-77
2022/10/17 10:28:03;;;;;;;7.85;4.47;;;;;;;15.94;49.22;94524.91;5069195;28;20094;-77
2022/10/17 10:30:31;;;;;;;6.75;3.97;;;;;;;16.20;47.90;94528.28;5069725;28;20105;-77
2022/10/17 10:33:00;;;;;;;10.63;4.47;;;;;;;16.17;46.72;94511.34;5069461;28;20048;-77
2022/10/17 10:35:32;;;;;;;7.93;4.50;;;;;;;16.34;47.35;94520.41;5069275;28;20047;-77
2022/10/17 10:38:03;;;;;;;5.88;3.88;;;;;;;16.02;45.27;94498.72;5066552;28;20121;-77
2022/10/17 10:40:36;;;;;;;7.22;3.78;;;;;;;16.49;47.57;94512.28;5066784;28;20061;-77
2022/10/17 10:43:05;;;;;;;5.28;2.80;;;;;;;16.49;44.49;94505.31;5068957;28;20089;-77
2022/10/17 10:45:42;;;;;;;7.20;3.45;;;;;;;16.40;44.71;94504.75;5069470;28;20048;-77
2022/10/17 10:48:20;;;;;;;6.97;2.78;;;;;;;16.37;44.47;94509.59;5069283;28;20044;-76
2022/10/17 10:50:50;;;;;;;5.03;2.90;;;;;;;16.47;43.29;94506.53;5069105;28;20040;-77
2022/10/17 10:53:41;;;;;;;8.23;2.53;;;;;;;16.65;43.28;94496.16;5068928;28;20500;-77
2022/10/17 10:56:14;;;;;;;7.00;2.78;;;;;;;16.69;43.26;94501.72;5069289;28;20094;-77
2022/10/17 10:58:50;;;;;;;5.47;4.00;;;;;;;16.67;43.68;94470.00;5069174;28;20485;-77
2022/10/17 11:01:27;;;;;;;4.15;2.85;;;;;;;17.07;43.03;94487.75;5069286;28;20106;-77
2022/10/17 11:04:07;;;;;;;4.47;2.22;;;;;;;16.75;42.56;94490.47;5069030;28;20470;-76
2022/10/17 11:06:40;;;;;;;4.65;2.47;;;;;;;16.37;43.25;94486.25;5069145;28;20048;-77
2022/10/17 11:09:18;;;;;;;5.85;2.45;;;;;;;16.55;44.17;94495.88;5069227;28;20390;-77
2022/10/17 11:11:49;;;;;;;6.93;2.63;;;;;;;16.52;43.56;94491.13;5069210;28;20048;-77
2022/10/17 11:14:21;;;;;;;4.63;2.38;;;;;;;16.79;44.59;94488.22;5069045;28;20052;-77
2022/10/17 11:16:57;;;;;;;7.18;2.88;;;;;;;16.65;42.95;94488.38;5068965;28;20052;-77
2022/10/17 11:19:28;;;;;;;6.80;2.63;;;;;;;16.70;42.44;94490.31;5069112;28;20087;-77
2022/10/17 11:22:07;;;;;;;4.65;2.60;;;;;;;16.80;42.00;94488.00;5069068;28;20413;-77
2022/10/17 11:24:40;;;;;;;4.43;2.13;;;;;;;16.86;42.83;94485.56;5068730;28;20044;-77
2022/10/17 11:27:08;;;;;;;7.80;3.35;;;;;;;17.02;43.09;94471.19;5068750;28;20095;-77
2022/10/17 11:29:37;;;;;;;5.45;2.58;;;;;;;16.67;42.94;94475.19;5068674;28;20045;-78
2022/10/17 11:32:11;;;;;;;6.93;2.50;;;;;;;16.86;42.67;94472.59;5068574;28;20094;-77
2022/10/17 11:34:42;;;;;;;7.32;2.75;;;;;;;17.05;42.94;94476.78;5068832;28;20040;-78
2022/10/17 11:37:17;;;;;;;6.40;3.20;;;;;;;17.12;42.96;94462.94;5069187;28;20040;-77
2022/10/17 11:39:48;;;;;;;6.72;2.10;;;;;;;17.02;42.87;94466.00;5068473;28;20044;-77
2022/10/17 11:42:23;;;;;;;4.20;2.55;;;;;;;17.13;42.32;94470.47;5068613;28;20056;-78